createdAt,value
2022-11-27T00:03:59.932Z,100.00
2022-11-27T00:09:06.253Z,100.00
2022-11-27T00:14:11.289Z,100.00
2022-11-27T00:19:13.732Z,100.00
2022-11-27T00:24:16.153Z,100.00
2022-11-27T00:29:18.617Z,100.00
2022-11-27T00:34:21.170Z,100.00
2022-11-27T00:39:23.595Z,100.00
2022-11-27T00:44:26.052Z,100.00
2022-11-27T00:49:28.672Z,100.00
2022-11-27T00:54:31.397Z,100.00
2022-11-27T00:59:34.002Z,100.00
2022-11-27T01:04:36.386Z,100.00
2022-11-27T01:09:38.888Z,100.00
2022-11-27T01:14:41.707Z,100.00
2022-11-27T01:19:44.273Z,100.00
2022-11-27T01:24:46.668Z,100.00
2022-11-27T01:29:49.040Z,100.00
2022-11-27T01:34:52.442Z,100.00
2022-11-27T01:39:56.775Z,100.00
2022-11-27T01:44:59.523Z,100.00
2022-11-27T01:50:13.679Z,100.00
2022-11-27T01:55:23.107Z,100.00
2022-11-27T02:00:26.036Z,100.00
2022-11-27T02:05:29.414Z,100.00
2022-11-27T02:11:12.192Z,100.00
2022-11-27T02:16:33.174Z,100.00
2022-11-27T02:21:44.731Z,100.00
2022-11-27T02:27:01.818Z,100.00
2022-11-27T02:32:16.211Z,100.00
2022-11-27T02:37:42.814Z,100.00
2022-11-27T02:42:57.957Z,100.00
2022-11-27T02:48:00.627Z,100.00
2022-11-27T02:53:07.780Z,100.00
2022-11-27T02:58:16.801Z,100.00
2022-11-27T03:03:26.137Z,100.00
2022-11-27T03:09:02.919Z,100.00
2022-11-27T03:14:08.686Z,100.00
2022-11-27T03:19:26.335Z,100.00
2022-11-27T03:24:31.385Z,100.00
2022-11-27T03:29:43.305Z,100.00
2022-11-27T03:34:47.036Z,100.00
2022-11-27T03:39:50.006Z,100.00
2022-11-27T03:45:01.638Z,100.00
2022-11-27T03:50:15.904Z,100.00
2022-11-27T03:55:27.996Z,100.00
2022-11-27T04:00:38.483Z,100.00
2022-11-27T04:05:40.972Z,100.00
2022-11-27T04:10:43.349Z,100.00
2022-11-27T04:15:45.916Z,100.00
2022-11-27T04:20:48.390Z,100.00
2022-11-27T04:25:51.081Z,100.00
2022-11-27T04:30:54.954Z,100.00
2022-11-27T04:35:57.350Z,100.00
2022-11-27T04:40:59.764Z,100.00
2022-11-27T04:46:02.556Z,100.00
2022-11-27T04:51:05.288Z,100.00
2022-11-27T04:56:07.835Z,100.00
2022-11-27T05:01:10.574Z,100.00
2022-11-27T05:06:13.073Z,100.00
2022-11-27T05:11:17.653Z,100.00
2022-11-27T05:16:20.055Z,100.00
2022-11-27T05:21:22.665Z,100.00
2022-11-27T05:26:25.034Z,100.00
2022-11-27T05:31:27.470Z,100.00
2022-11-27T05:36:31.175Z,100.00
2022-11-27T05:41:35.403Z,100.00
2022-11-27T05:46:37.841Z,100.00
2022-11-27T05:51:41.967Z,100.00
2022-11-27T05:56:46.927Z,100.00
2022-11-27T06:01:49.756Z,100.00
2022-11-27T06:06:52.439Z,100.00
2022-11-27T06:11:54.887Z,100.00
2022-11-27T06:16:57.586Z,100.00
2022-11-27T06:22:00.248Z,100.00
2022-11-27T06:27:03.142Z,100.00
2022-11-27T06:32:06.723Z,100.00
2022-11-27T06:37:13.144Z,100.00
2022-11-27T06:42:16.082Z,100.00
2022-11-27T06:47:18.502Z,100.00
2022-11-27T06:52:20.943Z,100.00
2022-11-27T06:57:23.402Z,100.00
2022-11-27T07:02:26.237Z,100.00
2022-11-27T07:07:28.938Z,100.00
2022-11-27T07:12:31.615Z,100.00
2022-11-27T07:17:34.802Z,100.00
2022-11-27T07:22:37.210Z,100.00
2022-11-27T07:27:39.550Z,100.00
2022-11-27T07:32:42.026Z,100.00
2022-11-27T07:37:44.435Z,100.00
2022-11-27T07:42:46.888Z,100.00
2022-11-27T07:47:51.313Z,100.00
2022-11-27T07:52:53.734Z,100.00
2022-11-27T07:57:56.194Z,100.00
2022-11-27T08:03:00.239Z,100.00
2022-11-27T08:08:04.628Z,100.00
2022-11-27T08:13:07.401Z,100.00
2022-11-27T08:18:09.876Z,100.00
2022-11-27T08:23:15.327Z,100.00
2022-11-27T08:28:20.633Z,100.00
2022-11-27T08:33:23.099Z,100.00
2022-11-27T08:38:25.627Z,100.00
2022-11-27T08:43:28.861Z,100.00
2022-11-27T08:48:31.754Z,100.00
2022-11-27T08:53:34.836Z,100.00
2022-11-27T08:58:37.590Z,100.00
2022-11-27T09:03:40.170Z,100.00
2022-11-27T09:08:43.886Z,100.00
2022-11-27T09:13:47.263Z,100.00
2022-11-27T09:18:51.616Z,100.00
2022-11-27T09:23:55.432Z,100.00
2022-11-27T09:29:00.195Z,100.00
2022-11-27T09:34:04.975Z,100.00
2022-11-27T09:39:07.453Z,100.00
2022-11-27T09:44:18.638Z,100.00
2022-11-27T09:49:45.752Z,100.00
2022-11-27T09:55:01.616Z,100.00
2022-11-27T10:00:19.539Z,100.00
2022-11-27T10:05:25.942Z,100.00
2022-11-27T10:10:49.550Z,100.00
2022-11-27T10:16:14.535Z,99.08
2022-11-27T10:21:24.324Z,97.19
2022-11-27T10:26:40.417Z,96.10
2022-11-27T10:31:49.537Z,97.04
2022-11-27T10:36:53.910Z,98.58
2022-11-27T10:42:04.383Z,97.97
2022-11-27T10:47:11.047Z,92.06
2022-11-27T10:52:16.611Z,90.08
2022-11-27T10:57:48.871Z,91.35
2022-11-27T11:03:04.769Z,86.89
2022-11-27T11:08:17.102Z,80.76
2022-11-27T11:13:42.847Z,74.07
2022-11-27T11:18:46.744Z,64.71
2022-11-27T11:24:01.705Z,61.73
2022-11-27T11:29:25.554Z,56.65
2022-11-27T11:34:30.251Z,58.54
2022-11-27T11:39:44.011Z,63.68
2022-11-27T11:45:06.527Z,64.67
2022-11-27T11:50:13.526Z,66.36
2022-11-27T11:55:23.263Z,57.96
2022-11-27T12:00:58.594Z,52.87
2022-11-27T12:06:22.959Z,59.16
2022-11-27T12:11:35.300Z,57.24
2022-11-27T12:16:52.921Z,53.05
2022-11-27T12:22:07.403Z,46.37
2022-11-27T12:27:24.686Z,45.65
2022-11-27T12:33:04.245Z,46.34
2022-11-27T12:38:48.791Z,54.76
2022-11-27T12:43:56.147Z,58.67
2022-11-27T12:49:35.117Z,60.50
2022-11-27T12:54:58.902Z,60.32
2022-11-27T13:00:24.161Z,61.54
2022-11-27T13:05:32.615Z,64.19
2022-11-27T13:10:43.428Z,65.05
2022-11-27T13:15:56.251Z,64.90
2022-11-27T13:21:02.803Z,65.78
2022-11-27T13:26:23.238Z,66.76
2022-11-27T13:31:32.618Z,67.37
2022-11-27T13:36:41.655Z,65.54
2022-11-27T13:41:44.361Z,65.97
2022-11-27T13:46:54.900Z,66.08
2022-11-27T13:52:19.144Z,67.64
2022-11-27T13:57:22.349Z,68.40
2022-11-27T14:02:26.074Z,67.80
2022-11-27T14:07:45.352Z,67.92
2022-11-27T14:13:07.641Z,68.27
2022-11-27T14:18:22.767Z,69.01
2022-11-27T14:23:38.107Z,70.09
2022-11-27T14:28:48.414Z,69.84
2022-11-27T14:34:14.154Z,70.17
2022-11-27T14:39:36.081Z,71.84
2022-11-27T14:44:41.172Z,71.67
2022-11-27T14:49:44.262Z,72.57
2022-11-27T14:54:47.171Z,71.26
2022-11-27T15:00:00.606Z,71.61
2022-11-27T15:05:06.212Z,70.94
2022-11-27T15:10:22.309Z,71.87
2022-11-27T15:15:27.593Z,72.25
2022-11-27T15:20:45.054Z,71.62
2022-11-27T15:26:14.954Z,71.90
2022-11-27T15:31:37.605Z,72.72
2022-11-27T15:36:44.311Z,72.08
2022-11-27T15:41:57.598Z,71.06
2022-11-27T15:47:02.394Z,73.09
2022-11-27T15:52:05.219Z,74.72
2022-11-27T15:57:07.692Z,76.08
2022-11-27T16:02:17.260Z,77.07
2022-11-27T16:07:20.486Z,77.26
2022-11-27T16:12:23.068Z,78.95
2022-11-27T16:17:25.462Z,78.94
2022-11-27T16:22:28.066Z,79.38
2022-11-27T16:27:31.009Z,80.12
2022-11-27T16:32:36.975Z,78.33
2022-11-27T16:37:41.061Z,76.93
2022-11-27T16:42:44.011Z,78.50
2022-11-27T16:47:46.958Z,79.66
2022-11-27T16:52:54.464Z,80.92
2022-11-27T16:57:59.228Z,81.51
2022-11-27T17:03:03.807Z,79.88
2022-11-27T17:08:06.821Z,82.11
2022-11-27T17:13:09.278Z,83.44
2022-11-27T17:18:12.095Z,81.54
2022-11-27T17:23:14.459Z,80.32
2022-11-27T17:28:16.911Z,79.12
2022-11-27T17:33:19.376Z,81.08
2022-11-27T17:38:22.163Z,81.85
2022-11-27T17:43:25.664Z,78.89
2022-11-27T17:48:31.662Z,78.60
2022-11-27T17:53:35.353Z,77.89
2022-11-27T17:58:38.891Z,74.93
2022-11-27T18:03:42.613Z,75.71
2022-11-27T18:08:46.764Z,75.02
2022-11-27T18:13:51.155Z,74.07
2022-11-27T18:18:54.286Z,73.35
2022-11-27T18:24:22.099Z,72.98
2022-11-27T18:29:20.237Z,72.58
2022-11-27T18:34:22.690Z,72.04
2022-11-27T18:39:25.533Z,71.59
2022-11-27T18:44:28.095Z,71.63
2022-11-27T18:49:30.748Z,71.47
2022-11-27T18:54:34.289Z,72.77
2022-11-27T18:59:37.390Z,74.03
2022-11-27T19:04:43.326Z,72.81
2022-11-27T19:09:45.904Z,72.94
2022-11-27T19:14:48.818Z,74.27
2022-11-27T19:19:55.088Z,73.92
2022-11-27T19:24:57.914Z,73.92
2022-11-27T19:30:00.483Z,75.10
2022-11-27T19:35:07.191Z,74.47
2022-11-27T19:40:11.197Z,72.86
2022-11-27T19:45:13.620Z,72.08
2022-11-27T19:50:16.409Z,71.97
2022-11-27T19:55:19.300Z,71.68
2022-11-27T20:00:22.165Z,72.88
2022-11-27T20:05:24.650Z,73.18
2022-11-27T20:10:27.400Z,72.57
2022-11-27T20:15:30.510Z,71.03
2022-11-27T20:20:34.288Z,72.11
2022-11-27T20:25:40.078Z,71.73
2022-11-27T20:30:44.633Z,71.35
2022-11-27T20:35:47.105Z,71.86
2022-11-27T20:40:50.802Z,72.27
2022-11-27T20:45:55.046Z,73.04
2022-11-27T20:51:04.961Z,74.72
2022-11-27T20:56:09.660Z,72.30
2022-11-27T21:01:24.678Z,72.20
2022-11-27T21:06:32.923Z,73.48
2022-11-27T21:11:37.757Z,74.08
2022-11-27T21:16:43.860Z,74.20
2022-11-27T21:21:48.335Z,74.82
2022-11-27T21:26:51.110Z,76.25
2022-11-27T21:31:54.042Z,77.33
2022-11-27T21:36:56.737Z,76.68
2022-11-27T21:41:59.300Z,76.75
2022-11-27T21:47:02.573Z,76.74
2022-11-27T21:52:06.588Z,76.05
2022-11-27T21:57:09.148Z,76.14
2022-11-27T22:02:14.767Z,76.02
2022-11-27T22:07:17.360Z,77.33
2022-11-27T22:12:19.847Z,79.47
2022-11-27T22:17:24.559Z,79.20
2022-11-27T22:22:28.967Z,79.49
2022-11-27T22:27:31.519Z,78.63
2022-11-27T22:32:34.631Z,79.77
2022-11-27T22:37:37.198Z,78.27
2022-11-27T22:42:39.800Z,77.56
2022-11-27T22:47:42.285Z,78.08
2022-11-27T22:52:44.873Z,78.75
2022-11-27T22:57:47.352Z,77.73
2022-11-27T23:02:49.880Z,75.98
2022-11-27T23:07:53.142Z,75.32
2022-11-27T23:12:55.864Z,75.87
2022-11-27T23:17:58.855Z,77.79
2022-11-27T23:23:01.510Z,77.54
2022-11-27T23:28:05.018Z,78.56
2022-11-27T23:33:07.588Z,79.37
2022-11-27T23:38:09.986Z,79.16
2022-11-27T23:43:12.534Z,78.68
2022-11-27T23:48:15.262Z,81.36
2022-11-27T23:53:17.655Z,78.64
2022-11-27T23:58:20.193Z,80.83
